createdAt,value
2017-09-01T00:01:28.492Z,86.30
2017-09-01T00:03:54.903Z,86.70
2017-09-01T00:06:21.319Z,86.90
2017-09-01T00:08:47.722Z,87.00
2017-09-01T00:11:14.104Z,87.20
2017-09-01T00:13:40.536Z,87.20
2017-09-01T00:16:06.944Z,87.00
2017-09-01T00:18:33.355Z,87.10
2017-09-01T00:20:59.735Z,87.40
2017-09-01T00:23:26.144Z,87.60
2017-09-01T00:25:52.524Z,87.70
2017-09-01T00:28:18.927Z,87.80
2017-09-01T00:30:45.299Z,87.70
2017-09-01T00:33:11.716Z,87.60
2017-09-01T00:35:38.132Z,87.80
2017-09-01T00:38:04.522Z,88.20
2017-09-01T00:40:30.946Z,88.10
2017-09-01T00:42:57.362Z,88.00
2017-09-01T00:45:23.771Z,88.20
2017-09-01T00:47:50.190Z,88.30
2017-09-01T00:50:16.616Z,88.50
2017-09-01T00:52:43.047Z,88.50
2017-09-01T00:55:09.471Z,88.70
2017-09-01T00:57:35.892Z,88.80
2017-09-01T01:00:02.340Z,88.90
2017-09-01T01:02:28.736Z,88.80
2017-09-01T01:04:55.126Z,88.60
2017-09-01T01:07:21.546Z,88.80
2017-09-01T01:09:47.943Z,89.00
2017-09-01T01:12:14.388Z,89.20
2017-09-01T01:14:40.822Z,89.00
2017-09-01T01:17:07.246Z,89.50
2017-09-01T01:19:33.662Z,89.50
2017-09-01T01:22:00.115Z,89.50
2017-09-01T01:24:26.576Z,89.30
2017-09-01T01:26:53.067Z,89.20
2017-09-01T01:29:19.522Z,89.50
2017-09-01T01:31:45.958Z,89.40
2017-09-01T01:34:12.379Z,90.00
2017-09-01T01:36:38.828Z,89.40
2017-09-01T01:39:05.252Z,89.30
2017-09-01T01:41:31.751Z,89.10
2017-09-01T01:43:58.209Z,89.10
2017-09-01T01:46:24.639Z,89.50
2017-09-01T01:48:51.087Z,89.80
2017-09-01T01:51:17.523Z,89.80
2017-09-01T01:53:43.995Z,89.90
2017-09-01T01:56:10.462Z,90.00
2017-09-01T01:58:36.898Z,90.00
2017-09-01T02:01:03.430Z,90.20
2017-09-01T02:03:29.868Z,90.20
2017-09-01T02:05:56.282Z,90.30
2017-09-01T02:08:22.756Z,90.30
2017-09-01T02:10:49.199Z,90.30
2017-09-01T02:13:15.620Z,90.50
2017-09-01T02:15:42.071Z,90.50
2017-09-01T02:18:08.535Z,90.60
2017-09-01T02:20:35.001Z,90.50
2017-09-01T02:23:01.439Z,90.50
2017-09-01T02:25:27.883Z,90.50
2017-09-01T02:27:54.299Z,90.60
2017-09-01T02:30:20.756Z,90.60
2017-09-01T02:32:47.189Z,90.60
2017-09-01T02:35:13.644Z,90.80
2017-09-01T02:37:40.100Z,90.70
2017-09-01T02:40:06.555Z,90.90
2017-09-01T02:42:33.043Z,90.90
2017-09-01T02:44:59.497Z,90.80
2017-09-01T02:47:25.927Z,91.00
2017-09-01T02:49:52.399Z,91.10
2017-09-01T02:52:18.812Z,91.10
2017-09-01T02:54:45.406Z,90.90
2017-09-01T02:57:11.923Z,91.00
2017-09-01T02:59:38.391Z,91.10
2017-09-01T03:02:04.837Z,91.10
2017-09-01T03:04:31.280Z,91.10
2017-09-01T03:06:57.734Z,91.10
2017-09-01T03:09:24.183Z,91.10
2017-09-01T03:11:50.687Z,91.10
2017-09-01T03:14:17.131Z,91.20
2017-09-01T03:16:43.551Z,91.30
2017-09-01T03:19:10.033Z,91.30
2017-09-01T03:21:36.479Z,91.50
2017-09-01T03:24:02.915Z,91.60
2017-09-01T03:26:29.376Z,91.60
2017-09-01T03:28:55.874Z,91.50
2017-09-01T03:31:22.322Z,91.50
2017-09-01T03:33:48.770Z,91.60
2017-09-01T03:36:15.314Z,91.60
2017-09-01T03:38:41.743Z,91.80
2017-09-01T03:41:08.911Z,91.80
2017-09-01T03:43:35.364Z,91.80
2017-09-01T03:46:01.796Z,91.90
2017-09-01T03:48:28.259Z,92.20
2017-09-01T03:50:54.715Z,92.10
2017-09-01T03:53:21.132Z,92.20
2017-09-01T03:55:47.588Z,92.20
2017-09-01T03:58:14.056Z,92.30
2017-09-01T04:00:40.482Z,92.40
2017-09-01T04:03:06.963Z,92.50
2017-09-01T04:05:33.363Z,92.40
2017-09-01T04:07:59.794Z,92.50
2017-09-01T04:10:26.251Z,92.60
2017-09-01T04:12:52.711Z,92.40
2017-09-01T04:15:19.212Z,92.40
2017-09-01T04:17:45.650Z,92.60
2017-09-01T04:20:12.145Z,92.60
2017-09-01T04:22:38.827Z,92.60
2017-09-01T04:25:05.371Z,92.50
2017-09-01T04:27:31.812Z,92.50
2017-09-01T04:29:58.261Z,92.50
2017-09-01T04:32:25.330Z,92.40
2017-09-01T04:34:51.827Z,92.40
2017-09-01T04:37:18.256Z,92.30
2017-09-01T04:39:44.679Z,92.30
2017-09-01T04:42:11.111Z,92.30
2017-09-01T04:44:37.542Z,92.70
2017-09-01T04:47:03.975Z,92.10
2017-09-01T04:49:30.415Z,92.00
2017-09-01T04:51:56.818Z,92.10
2017-09-01T04:54:23.219Z,92.00
2017-09-01T04:56:49.660Z,91.70
2017-09-01T04:59:16.499Z,91.50
2017-09-01T05:01:42.944Z,91.50
2017-09-01T05:04:09.372Z,91.80
2017-09-01T05:06:35.776Z,91.70
2017-09-01T05:09:02.299Z,91.60
2017-09-01T05:11:28.696Z,91.50
2017-09-01T05:13:55.168Z,91.10
2017-09-01T05:16:21.639Z,91.00
2017-09-01T05:18:48.066Z,91.10
2017-09-01T05:21:14.502Z,90.90
2017-09-01T05:23:40.911Z,90.90
2017-09-01T05:26:07.344Z,91.10
2017-09-01T05:28:33.783Z,91.40
2017-09-01T05:31:00.164Z,91.40
2017-09-01T05:33:26.616Z,91.40
2017-09-01T05:35:53.111Z,91.50
2017-09-01T05:38:19.579Z,91.50
2017-09-01T05:40:46.102Z,91.50
2017-09-01T05:43:12.535Z,91.80
2017-09-01T05:45:38.944Z,91.60
2017-09-01T05:48:05.332Z,91.70
2017-09-01T05:50:31.807Z,91.70
2017-09-01T05:52:58.249Z,91.70
2017-09-01T05:55:24.655Z,91.90
2017-09-01T05:57:51.125Z,91.80
2017-09-01T06:00:17.536Z,91.40
2017-09-01T06:02:44.043Z,90.50
2017-09-01T06:05:10.435Z,90.30
2017-09-01T06:07:36.828Z,90.30
2017-09-01T06:10:03.228Z,89.20
2017-09-01T06:12:29.630Z,90.10
2017-09-01T06:14:56.080Z,89.70
2017-09-01T06:17:22.451Z,90.00
2017-09-01T06:19:48.837Z,88.60
2017-09-01T06:22:15.240Z,89.30
2017-09-01T06:24:41.627Z,90.00
2017-09-01T06:27:07.996Z,89.50
2017-09-01T06:29:34.416Z,87.90
2017-09-01T06:32:00.831Z,86.40
2017-09-01T06:34:27.218Z,88.00
2017-09-01T06:36:53.671Z,87.90
2017-09-01T06:39:20.071Z,87.40
2017-09-01T06:41:46.575Z,87.20
2017-09-01T06:44:12.971Z,87.50
2017-09-01T06:46:39.840Z,86.50
2017-09-01T06:49:06.327Z,85.80
2017-09-01T06:51:32.753Z,85.80
2017-09-01T06:53:59.435Z,85.60
2017-09-01T06:56:25.960Z,86.80
2017-09-01T06:58:52.421Z,86.10
2017-09-01T07:01:18.843Z,87.40
2017-09-01T07:03:45.240Z,85.60
2017-09-01T07:06:11.647Z,85.40
2017-09-01T07:08:38.340Z,85.00
2017-09-01T07:11:04.882Z,85.80
2017-09-01T07:13:31.280Z,85.70
2017-09-01T07:15:57.936Z,84.80
2017-09-01T07:18:24.514Z,84.10
2017-09-01T07:20:51.315Z,85.50
2017-09-01T07:23:17.760Z,85.50
2017-09-01T07:25:44.400Z,84.60
2017-09-01T07:28:10.941Z,86.20
2017-09-01T07:30:37.412Z,85.50
2017-09-01T07:33:03.988Z,84.60
2017-09-01T07:35:30.523Z,83.80
2017-09-01T07:37:56.935Z,86.30
2017-09-01T07:40:23.323Z,83.70
2017-09-01T07:42:49.871Z,85.30
2017-09-01T07:45:16.638Z,86.10
2017-09-01T07:47:43.072Z,85.00
2017-09-01T07:50:09.645Z,84.60
2017-09-01T07:52:36.198Z,86.00
2017-09-01T07:55:02.740Z,84.10
2017-09-01T07:57:29.168Z,83.50
2017-09-01T07:59:55.811Z,83.20
2017-09-01T08:02:22.247Z,85.30
2017-09-01T08:04:48.871Z,82.90
2017-09-01T08:07:15.360Z,82.40
2017-09-01T08:09:42.060Z,81.70
2017-09-01T08:12:08.497Z,83.00
2017-09-01T08:14:34.919Z,80.60
2017-09-01T08:17:01.643Z,81.80
2017-09-01T08:19:28.040Z,84.50
2017-09-01T08:21:54.700Z,82.70
2017-09-01T08:24:21.170Z,82.70
2017-09-01T08:26:47.699Z,81.70
2017-09-01T08:29:14.587Z,83.50
2017-09-01T08:31:41.107Z,81.90
2017-09-01T08:34:07.487Z,83.30
2017-09-01T08:36:34.144Z,82.90
2017-09-01T08:39:00.880Z,82.90
2017-09-01T08:41:27.375Z,82.40
2017-09-01T08:43:53.991Z,81.90
2017-09-01T08:46:20.439Z,79.10
2017-09-01T08:48:47.100Z,79.00
2017-09-01T08:51:13.631Z,79.70
2017-09-01T08:53:40.284Z,79.90
2017-09-01T08:56:07.644Z,79.20
2017-09-01T08:58:34.068Z,79.90
2017-09-01T09:01:00.463Z,79.70
2017-09-01T09:03:26.883Z,79.70
2017-09-01T09:05:53.262Z,79.20
2017-09-01T09:08:19.719Z,79.60
2017-09-01T09:10:46.468Z,80.00
2017-09-01T09:13:13.278Z,80.00
2017-09-01T09:15:39.692Z,80.70
2017-09-01T09:18:06.132Z,80.00
2017-09-01T09:20:32.661Z,80.70
2017-09-01T09:22:59.534Z,80.90
2017-09-01T09:25:26.045Z,80.90
2017-09-01T09:27:53.807Z,81.20
2017-09-01T09:30:20.315Z,82.20
2017-09-01T09:32:46.743Z,84.30
2017-09-01T09:35:13.188Z,86.60
2017-09-01T09:37:39.598Z,85.80
2017-09-01T09:40:06.012Z,87.50
2017-09-01T09:42:32.411Z,87.50
2017-09-01T09:44:58.808Z,89.50
2017-09-01T09:47:25.242Z,90.60
2017-09-01T09:49:52.665Z,91.30
2017-09-01T09:52:19.247Z,92.10
2017-09-01T09:54:45.660Z,93.20
2017-09-01T09:57:12.342Z,94.70
2017-09-01T09:59:38.775Z,95.50
2017-09-01T10:02:05.200Z,96.50
2017-09-01T10:04:31.812Z,96.20
2017-09-01T10:06:58.267Z,97.10
2017-09-01T10:09:24.920Z,97.60
2017-09-01T10:11:51.471Z,97.60
2017-09-01T10:14:18.012Z,98.00
2017-09-01T10:16:44.572Z,98.60
2017-09-01T10:19:11.126Z,98.80
2017-09-01T10:21:38.471Z,99.10
2017-09-01T10:24:04.904Z,99.10
2017-09-01T10:26:31.371Z,99.00
2017-09-01T10:28:57.911Z,99.10
2017-09-01T10:31:24.639Z,99.20
2017-09-01T10:33:51.127Z,98.70
2017-09-01T10:36:17.555Z,99.60
2017-09-01T10:38:43.952Z,99.90
2017-09-01T10:41:10.363Z,99.90
2017-09-01T10:43:36.755Z,99.70
2017-09-01T10:46:03.163Z,99.90
2017-09-01T10:48:41.744Z,99.90
2017-09-01T10:51:20.356Z,99.90
2017-09-01T10:53:59.104Z,99.90
2017-09-01T10:56:37.799Z,99.90
2017-09-01T10:59:04.219Z,99.90
2017-09-01T11:01:30.624Z,99.60
2017-09-01T11:03:57.041Z,99.80
2017-09-01T11:06:23.446Z,99.50
2017-09-01T11:08:49.859Z,99.10
2017-09-01T11:11:16.244Z,99.20
2017-09-01T11:13:42.630Z,97.80
2017-09-01T11:16:09.053Z,99.00
2017-09-01T11:18:41.569Z,98.60
2017-09-01T11:21:14.341Z,98.80
2017-09-01T11:26:41.720Z,97.00
2017-09-01T11:29:08.263Z,97.90
2017-09-01T11:31:34.681Z,98.10
2017-09-01T11:34:01.084Z,98.80
2017-09-01T11:36:27.618Z,99.60
2017-09-01T11:38:54.089Z,98.90
2017-09-01T11:41:20.495Z,99.40
2017-09-01T11:43:46.887Z,99.70
2017-09-01T11:46:13.603Z,99.50
2017-09-01T11:48:40.056Z,99.10
2017-09-01T11:51:06.496Z,98.70
2017-09-01T11:53:32.970Z,99.00
2017-09-01T11:55:59.376Z,99.30
2017-09-01T11:58:25.816Z,99.00
2017-09-01T12:00:52.285Z,99.60
2017-09-01T12:03:18.996Z,99.90
2017-09-01T12:05:45.479Z,99.90
2017-09-01T12:08:11.887Z,99.90
2017-09-01T12:10:38.275Z,99.90
2017-09-01T12:13:04.699Z,99.90
2017-09-01T12:15:31.116Z,99.50
2017-09-01T12:17:57.542Z,99.90
2017-09-01T12:20:23.971Z,99.70
2017-09-01T12:22:50.391Z,99.80
2017-09-01T12:25:16.811Z,99.90
2017-09-01T12:27:43.191Z,99.90
2017-09-01T12:30:09.618Z,99.90
2017-09-01T12:32:36.745Z,99.90
2017-09-01T12:35:03.188Z,99.90
2017-09-01T12:37:29.603Z,99.90
2017-09-01T12:39:56.038Z,99.90
2017-09-01T12:42:22.538Z,99.90
2017-09-01T12:44:48.963Z,99.90
2017-09-01T12:47:15.335Z,99.90
2017-09-01T12:49:41.750Z,99.90
2017-09-01T12:52:08.151Z,99.90
2017-09-01T12:54:34.552Z,99.90
2017-09-01T12:57:00.963Z,99.90
2017-09-01T12:59:27.514Z,99.90
2017-09-01T13:01:53.891Z,99.90
2017-09-01T13:04:20.312Z,99.90
2017-09-01T13:06:46.710Z,99.90
2017-09-01T13:09:13.119Z,99.90
2017-09-01T13:11:39.602Z,99.90
2017-09-01T13:14:06.003Z,99.90
2017-09-01T13:16:32.424Z,99.50
2017-09-01T13:18:58.804Z,99.90
2017-09-01T13:21:25.215Z,98.30
2017-09-01T13:23:51.624Z,98.90
2017-09-01T13:26:18.007Z,98.90
2017-09-01T13:28:44.410Z,98.10
2017-09-01T13:31:10.895Z,98.50
2017-09-01T13:33:37.496Z,99.30
2017-09-01T13:36:03.892Z,97.90
2017-09-01T13:38:30.275Z,98.10
2017-09-01T13:40:56.679Z,98.40
2017-09-01T13:43:23.073Z,98.30
2017-09-01T13:45:49.499Z,99.00
2017-09-01T13:48:15.884Z,99.30
2017-09-01T13:50:42.273Z,99.10
2017-09-01T13:53:08.731Z,98.10
2017-09-01T13:55:35.119Z,98.40
2017-09-01T13:58:01.514Z,98.40
2017-09-01T14:00:27.954Z,98.30
2017-09-01T14:02:55.079Z,98.30
2017-09-01T14:05:21.489Z,98.30
2017-09-01T14:07:47.934Z,96.40
2017-09-01T14:10:14.579Z,96.10
2017-09-01T14:12:40.999Z,96.30
2017-09-01T14:15:07.491Z,97.90
2017-09-01T14:17:33.887Z,97.60
2017-09-01T14:20:00.255Z,96.30
2017-09-01T14:22:26.705Z,97.00
2017-09-01T14:24:53.187Z,97.20
2017-09-01T14:27:19.599Z,96.60
2017-09-01T14:29:46.014Z,97.10
2017-09-01T14:32:12.462Z,97.60
2017-09-01T14:34:39.004Z,96.60
2017-09-01T14:37:05.415Z,93.30
2017-09-01T14:39:31.836Z,92.00
2017-09-01T14:41:58.216Z,91.40
2017-09-01T14:44:24.690Z,90.10
2017-09-01T14:46:51.098Z,91.10
2017-09-01T14:49:17.472Z,91.40
2017-09-01T14:51:43.870Z,91.30
2017-09-01T14:54:10.352Z,86.20
2017-09-01T14:56:36.727Z,90.30
2017-09-01T14:59:03.175Z,87.60
2017-09-01T15:01:29.591Z,89.30
2017-09-01T15:03:56.092Z,88.30
2017-09-01T15:06:22.507Z,90.80
2017-09-01T15:08:48.908Z,92.00
2017-09-01T15:11:15.279Z,93.00
2017-09-01T15:13:41.737Z,90.10
2017-09-01T15:16:08.144Z,92.70
2017-09-01T15:18:34.530Z,92.10
2017-09-01T15:21:00.932Z,92.20
2017-09-01T15:23:27.443Z,93.50
2017-09-01T15:25:53.864Z,91.10
2017-09-01T15:28:20.238Z,91.90
2017-09-01T15:30:46.650Z,92.60
2017-09-01T15:33:13.093Z,92.90
2017-09-01T15:35:39.467Z,92.60
2017-09-01T15:38:05.843Z,94.20
2017-09-01T15:40:32.264Z,92.80
2017-09-01T15:42:58.655Z,93.70
2017-09-01T15:45:25.891Z,92.70
2017-09-01T15:47:52.399Z,92.70
2017-09-01T15:50:18.791Z,92.20
2017-09-01T15:52:45.288Z,92.10
2017-09-01T15:55:11.812Z,93.20
2017-09-01T15:57:38.307Z,92.50
2017-09-01T16:00:04.766Z,93.00
2017-09-01T16:02:31.131Z,93.60
2017-09-01T16:04:57.636Z,93.90
2017-09-01T16:07:24.051Z,94.90
2017-09-01T16:09:50.432Z,95.20
2017-09-01T16:12:16.813Z,94.90
2017-09-01T16:14:43.260Z,94.60
2017-09-01T16:17:09.675Z,94.60
2017-09-01T16:19:36.055Z,95.50
2017-09-01T16:22:02.571Z,95.20
2017-09-01T16:24:28.964Z,96.00
2017-09-01T16:26:55.347Z,96.50
2017-09-01T16:29:21.767Z,96.60
2017-09-01T16:31:48.158Z,96.70
2017-09-01T16:34:14.599Z,96.70
2017-09-01T16:36:40.995Z,96.90
2017-09-01T16:39:07.420Z,96.90
2017-09-01T16:41:33.801Z,96.30
2017-09-01T16:44:00.228Z,95.10
2017-09-01T16:46:26.632Z,90.90
2017-09-01T16:48:53.022Z,89.30
2017-09-01T16:51:19.407Z,88.80
2017-09-01T16:53:45.869Z,86.50
2017-09-01T16:56:12.370Z,86.40
2017-09-01T16:58:38.784Z,86.80
2017-09-01T17:01:05.147Z,87.40
2017-09-01T17:03:31.628Z,86.50
2017-09-01T17:05:58.048Z,89.50
2017-09-01T17:08:24.508Z,90.70
2017-09-01T17:10:50.935Z,91.50
2017-09-01T17:13:17.480Z,92.60
2017-09-01T17:15:43.920Z,92.40
2017-09-01T17:18:10.359Z,93.00
2017-09-01T17:20:36.755Z,93.00
2017-09-01T17:23:03.150Z,93.20
2017-09-01T17:25:29.564Z,93.20
2017-09-01T17:27:55.941Z,93.80
2017-09-01T17:30:22.406Z,94.30
2017-09-01T17:32:48.794Z,94.40
2017-09-01T17:35:15.356Z,93.10
2017-09-01T17:37:41.739Z,94.20
2017-09-01T17:40:08.123Z,93.80
2017-09-01T17:42:34.527Z,93.90
2017-09-01T17:45:00.927Z,93.70
2017-09-01T17:47:27.332Z,94.20
2017-09-01T17:49:53.740Z,94.60
2017-09-01T17:52:20.277Z,94.60
2017-09-01T17:54:46.842Z,95.20
2017-09-01T17:57:13.316Z,95.10
2017-09-01T17:59:39.776Z,94.80
2017-09-01T18:02:06.199Z,94.00
2017-09-01T18:04:32.616Z,94.70
2017-09-01T18:06:59.045Z,95.10
2017-09-01T18:09:25.440Z,95.10
2017-09-01T18:11:51.852Z,95.70
2017-09-01T18:14:18.385Z,95.60
2017-09-01T18:16:44.767Z,95.30
2017-09-01T18:19:11.192Z,94.30
2017-09-01T18:21:37.575Z,95.00
2017-09-01T18:24:03.981Z,95.70
2017-09-01T18:26:30.418Z,95.40
2017-09-01T18:28:56.843Z,94.20
2017-09-01T18:31:23.259Z,94.60
2017-09-01T18:33:49.676Z,95.20
2017-09-01T18:36:16.110Z,95.30
2017-09-01T18:38:42.544Z,95.60
2017-09-01T18:41:08.966Z,95.70
2017-09-01T18:43:35.439Z,95.60
2017-09-01T18:46:01.868Z,92.30
2017-09-01T18:48:28.271Z,94.00
2017-09-01T18:50:54.667Z,93.90
2017-09-01T18:53:21.144Z,94.10
2017-09-01T18:55:47.535Z,93.00
2017-09-01T18:58:13.920Z,93.00
2017-09-01T19:00:40.396Z,93.50
2017-09-01T19:03:06.839Z,93.70
2017-09-01T19:05:33.300Z,93.80
2017-09-01T19:07:59.783Z,93.70
2017-09-01T19:10:26.203Z,94.30
2017-09-01T19:12:52.587Z,93.20
2017-09-01T19:15:19.109Z,93.20
2017-09-01T19:17:45.533Z,93.70
2017-09-01T19:20:12.257Z,93.80
2017-09-01T19:22:38.705Z,94.00
2017-09-01T19:25:05.356Z,93.60
2017-09-01T19:27:31.838Z,92.90
2017-09-01T19:29:58.567Z,92.70
2017-09-01T19:32:25.291Z,93.90
2017-09-01T19:34:51.895Z,94.00
2017-09-01T19:37:18.498Z,93.80
2017-09-01T19:39:44.977Z,94.20
2017-09-01T19:42:11.400Z,94.90
2017-09-01T19:44:38.115Z,95.10
2017-09-01T19:47:04.554Z,95.10
2017-09-01T19:49:30.976Z,95.10
2017-09-01T19:51:57.655Z,95.50
2017-09-01T19:54:24.180Z,95.20
2017-09-01T19:56:50.813Z,95.40
2017-09-01T19:59:17.207Z,95.70
2017-09-01T20:01:43.620Z,95.80
2017-09-01T20:04:10.109Z,95.70
2017-09-01T20:06:36.487Z,94.80
2017-09-01T20:09:02.976Z,95.30
2017-09-01T20:11:29.399Z,95.70
2017-09-01T20:13:55.820Z,96.20
2017-09-01T20:16:22.899Z,96.60
2017-09-01T20:18:49.481Z,95.80
2017-09-01T20:21:16.002Z,96.50
2017-09-01T20:23:42.656Z,97.00
2017-09-01T20:26:09.207Z,96.30
2017-09-01T20:28:35.859Z,96.60
2017-09-01T20:31:02.813Z,96.10
2017-09-01T20:33:30.255Z,96.60
2017-09-01T20:35:56.690Z,96.10
2017-09-01T20:38:23.076Z,96.50
2017-09-01T20:40:49.463Z,96.60
2017-09-01T20:43:15.916Z,96.60
2017-09-01T20:45:42.307Z,96.40
2017-09-01T20:48:08.756Z,96.60
2017-09-01T20:50:35.134Z,96.60
2017-09-01T20:53:01.563Z,96.40
2017-09-01T20:55:27.992Z,96.00
2017-09-01T20:57:54.408Z,96.30
2017-09-01T21:00:20.843Z,96.90
2017-09-01T21:02:47.254Z,96.90
2017-09-01T21:05:13.897Z,96.50
2017-09-01T21:07:40.295Z,97.00
2017-09-01T21:10:06.715Z,96.90
2017-09-01T21:12:33.095Z,96.50
2017-09-01T21:14:59.528Z,96.90
2017-09-01T21:17:25.908Z,96.20
2017-09-01T21:19:52.302Z,96.00
2017-09-01T21:22:18.711Z,96.20
2017-09-01T21:24:45.149Z,96.50
2017-09-01T21:27:11.568Z,96.60
2017-09-01T21:29:37.947Z,96.60
2017-09-01T21:32:04.331Z,96.70
2017-09-01T21:34:30.791Z,96.50
2017-09-01T21:36:57.187Z,96.90
2017-09-01T21:39:23.605Z,97.40
2017-09-01T21:41:50.012Z,97.60
2017-09-01T21:44:16.499Z,97.70
2017-09-01T21:46:42.913Z,97.70
2017-09-01T21:49:09.294Z,97.50
2017-09-01T21:51:35.676Z,97.60
2017-09-01T21:54:02.184Z,97.30
2017-09-01T21:56:28.575Z,97.10
2017-09-01T21:58:54.940Z,97.10
2017-09-01T22:01:31.684Z,97.20
2017-09-01T22:03:58.119Z,96.50
2017-09-01T22:06:24.514Z,95.60
2017-09-01T22:08:50.895Z,94.70
2017-09-01T22:11:17.324Z,95.30
2017-09-01T22:13:43.747Z,95.60
2017-09-01T22:16:10.171Z,95.70
2017-09-01T22:18:36.547Z,95.80
2017-09-01T22:21:02.908Z,95.30
2017-09-01T22:23:29.391Z,95.50
2017-09-01T22:25:55.820Z,95.60
2017-09-01T22:28:22.221Z,95.10
2017-09-01T22:30:48.599Z,95.30
2017-09-01T22:33:15.023Z,95.50
2017-09-01T22:35:41.439Z,95.60
2017-09-01T22:38:07.815Z,95.90
2017-09-01T22:40:34.343Z,96.00
2017-09-01T22:43:00.730Z,96.40
2017-09-01T22:45:27.175Z,96.70
2017-09-01T22:47:53.593Z,96.60
2017-09-01T22:50:19.980Z,96.90
2017-09-01T22:52:46.380Z,96.90
2017-09-01T22:55:12.790Z,96.80
2017-09-01T22:57:39.248Z,95.20
2017-09-01T23:00:05.643Z,96.30
2017-09-01T23:02:32.054Z,96.50
2017-09-01T23:04:58.519Z,96.80
2017-09-01T23:07:24.922Z,96.80
2017-09-01T23:09:51.362Z,96.70
2017-09-01T23:12:17.757Z,96.60
2017-09-01T23:14:44.191Z,96.60
2017-09-01T23:17:10.572Z,97.00
2017-09-01T23:19:36.964Z,96.70
2017-09-01T23:22:03.367Z,96.90
2017-09-01T23:24:29.780Z,96.90
2017-09-01T23:26:59.126Z,97.20
2017-09-01T23:29:25.573Z,97.40
2017-09-01T23:31:51.967Z,97.60
2017-09-01T23:34:18.382Z,97.30
2017-09-01T23:36:44.770Z,97.30
2017-09-01T23:39:11.156Z,97.30
2017-09-01T23:41:37.547Z,97.30
2017-09-01T23:44:04.033Z,97.30
2017-09-01T23:46:30.452Z,97.30
2017-09-01T23:48:56.819Z,97.00
2017-09-01T23:51:23.223Z,97.30
2017-09-01T23:53:49.651Z,97.40
2017-09-01T23:56:16.051Z,97.30
2017-09-01T23:58:42.443Z,97.50
